Track Малиновский Степан

Time Latitude Longitude Accuracy (66% radius in meters) Altitude (meters) Speed (km/hour) Bearing (degrees) Battery (%) GPS flag
09:20:20 60.371308 29.556540 6 78.572711821769 0.18123853206635 0 94 1 delete
09:20:14 60.371316 29.556531 6 78.639505409372 0.022562442347407 0 94 1 delete
09:20:08 60.371336 29.556540 8 78.599597607664 0.016095206141472 0 94 1 delete
09:19:56 60.371341 29.556529 8 78.699466906953 0.25165444612503 0 94 1 delete
09:19:44 60.371346 29.556546 6 79.111073541943 0.3054370880127 0 94 1 delete
09:19:32 60.371334 29.556508 6 79.451108927103 0.33524575829506 0 94 1 delete
09:19:23 60.371339 29.556493 6 79.459925250476 0.023184038698673 0 94 1 delete
09:19:11 60.371336 29.556533 6 79.765714675963 0.25252935290337 0 94 1 delete
09:18:59 60.371350 29.556591 6 79.454437223093 0.066511534154415 0 94 1 delete
09:18:47 60.371370 29.556543 6 78.953509564531 0.10510777682066 0 94 1 delete
09:18:35 60.371351 29.556549 4 78.653835675835 0.0083966953679919 0 94 1 delete
09:18:23 60.371350 29.556512 6 77.550534374215 0.31226220726967 0 94 1 delete
09:18:11 60.371362 29.556538 6 76.419948683039 0.1858517229557 0 94 1 delete
09:18:02 60.371385 29.556495 6 76.904432545957 0.036426246166229 0 94 1 delete
09:17:59 60.371361 29.556532 8 76.920090114099 0.28213095664978 0 94 1 delete
09:17:50 60.371305 29.556442 12 77.828942601463 0.032887510955334 0 94 1 delete
09:17:38 60.371346 29.556516 12 77.991519932712 0.12873038649559 0 94 1 delete
09:17:29 60.371318 29.556526 4 78.173372730335 1.2134014368057 0 94 1 delete
09:17:17 60.371324 29.556529 8 78.887173318746 0.13983124494553 0 94 1 delete
09:17:14 60.371313 29.556521 6 78.693972679529 0.15870308876038 0 94 1 delete
09:17:05 60.371272 29.556577 6 78.201274383179 0.27127546072006 0 94 1 delete
09:17:02 60.371270 29.556578 6 77.96072679735 0.10544724017382 0 94 1 delete
09:16:53 60.371309 29.556524 8 77.707467315854 0.0034746828023344 0 94 1 delete
09:16:41 60.371366 29.556503 8 77.714096522328 0.14112234115601 0 94 1 delete
09:16:38 60.371364 29.556485 6 77.370302241851 0.027858885005116 0 94 1 delete
09:16:32 60.371325 29.556491 8 77.147336180554 0.33602434396744 0 94 1 delete
09:16:26 60.371304 29.556496 8 77.249654509186 0.45541274547577 0 94 1 delete
09:16:20 60.371318 29.556490 8 77.368784201491 0.11956560611725 0 94 1 delete
09:16:08 60.371320 29.556578 12 77.578023381631 0.21131926774979 0 94 1 delete
09:16:05 60.371324 29.556578 6 77.656006044758 0.0035677936393768 0 94 1 delete
09:15:56 60.371336 29.556550 12 77.834023339408 0.065524376928806 0 94 1 delete
09:15:47 60.371347 29.556489 6 78.352594243345 0.56117397546768 0 94 1 delete
09:15:38 60.371351 29.556471 12 78.251203611232 0.72395306825638 0 94 1 delete
09:15:35 60.371364 29.556484 8 78.619009143904 0.31424564123154 0 94 1 delete
09:15:23 60.371407 29.556449 12 79.184160627708 0.35142773389816 0 94 1 delete
09:15:11 60.371405 29.556442 8 78.922707475482 0.40428274869919 0 94 1 delete
09:15:02 60.371410 29.556428 12 79.381096014336 0 0 94 1 delete
09:14:50 60.371410 29.556428 8 79.456492343221 0 0 94 1 delete
09:14:38 60.371410 29.556428 6 79.554891379636 0 0 94 1 delete
09:14:26 60.371410 29.556428 6 79.697081579568 0 0 94 1 delete
09:14:17 60.371410 29.556428 6 79.814735511985 0 0 94 1 delete
09:14:05 60.371410 29.556428 6 79.971056858377 0 0 94 1 delete
09:13:53 60.371410 29.556428 8 80.11839629893 0 0 94 1 delete
09:13:41 60.371410 29.556428 6 80.276282420403 0 0 94 1 delete
09:13:29 60.371410 29.556428 6 80.405475658856 0 0 94 1 delete
09:13:20 60.371410 29.556428 8 80.510230983421 0 0 94 1 delete
09:13:08 60.371410 29.556428 8 80.647249516528 0 0 94 1 delete
09:12:56 60.371410 29.556428 8 80.744157032798 0 0 94 1 delete
09:12:47 60.371410 29.556428 8 80.776263886236 0 0 94 1 delete
09:12:35 60.371410 29.556428 6 80.798150841359 0 0 94 1 delete